createdAt,value
2023-04-11T00:00:23.010Z,9.31
2023-04-11T00:02:49.822Z,9.25
2023-04-11T00:05:16.624Z,9.40
2023-04-11T00:07:43.506Z,9.13
2023-04-11T00:10:10.605Z,9.24
2023-04-11T00:12:37.318Z,9.23
2023-04-11T00:15:05.153Z,9.27
2023-04-11T00:17:31.962Z,9.46
2023-04-11T00:20:01.803Z,9.38
2023-04-11T00:22:28.554Z,9.42
2023-04-11T00:24:55.552Z,9.31
2023-04-11T00:27:22.225Z,9.30
2023-04-11T00:29:49.001Z,9.15
2023-04-11T00:32:15.686Z,9.23
2023-04-11T00:34:42.482Z,9.29
2023-04-11T00:37:09.148Z,9.22
2023-04-11T00:39:35.954Z,9.14
2023-04-11T00:42:09.070Z,9.11
2023-04-11T00:44:36.521Z,9.06
2023-04-11T00:47:06.123Z,9.17
2023-04-11T00:49:33.271Z,9.12
2023-04-11T00:52:00.910Z,9.02
2023-04-11T00:54:30.280Z,9.05
2023-04-11T00:57:02.248Z,9.04
2023-04-11T00:59:30.384Z,9.18
2023-04-11T01:01:58.491Z,9.09
2023-04-11T01:04:26.362Z,8.88
2023-04-11T01:07:04.273Z,9.02
2023-04-11T01:09:33.416Z,9.11
2023-04-11T01:12:01.663Z,8.98
2023-04-11T01:14:28.894Z,9.04
2023-04-11T01:16:56.886Z,8.83
2023-04-11T01:19:26.742Z,8.97
2023-04-11T01:21:54.540Z,8.95
2023-04-11T01:24:21.555Z,8.84
2023-04-11T01:26:48.484Z,8.75
2023-04-11T01:29:16.720Z,8.77
2023-04-11T01:31:44.011Z,8.76
2023-04-11T01:34:14.308Z,8.67
2023-04-11T01:36:42.708Z,8.72
2023-04-11T01:39:09.753Z,8.66
2023-04-11T01:41:36.755Z,8.76
2023-04-11T01:44:04.252Z,8.79
2023-04-11T01:46:31.388Z,8.77
2023-04-11T01:48:59.193Z,8.73
2023-04-11T01:51:26.209Z,8.74
2023-04-11T01:53:52.931Z,8.81
2023-04-11T01:56:19.690Z,8.76
2023-04-11T01:58:46.829Z,8.72
2023-04-11T02:01:18.299Z,8.72
2023-04-11T02:03:49.373Z,8.66
2023-04-11T02:06:16.863Z,8.66
2023-04-11T02:08:44.666Z,8.72
2023-04-11T02:11:11.540Z,8.73
2023-04-11T02:13:38.395Z,8.66
2023-04-11T02:16:15.303Z,8.68
2023-04-11T02:18:45.904Z,8.63
2023-04-11T02:21:12.714Z,8.61
2023-04-11T02:23:39.573Z,8.61
2023-04-11T02:26:06.530Z,8.55
2023-04-11T02:28:33.239Z,8.52
2023-04-11T02:31:00.069Z,8.55
2023-04-11T02:33:27.178Z,8.57
2023-04-11T02:35:54.080Z,8.60
2023-04-11T02:38:21.451Z,8.55
2023-04-11T02:40:48.112Z,8.53
2023-04-11T02:43:16.013Z,8.51
2023-04-11T02:45:42.839Z,8.56
2023-04-11T02:48:11.296Z,8.54
2023-04-11T02:50:43.144Z,8.50
2023-04-11T02:53:10.153Z,8.44
2023-04-11T02:55:41.791Z,8.42
2023-04-11T02:58:08.687Z,8.45
2023-04-11T03:00:37.883Z,8.54
2023-04-11T03:03:07.771Z,8.49
2023-04-11T03:05:40.143Z,8.45
2023-04-11T03:08:09.269Z,8.39
2023-04-11T03:10:38.910Z,8.30
2023-04-11T03:13:09.312Z,8.41
2023-04-11T03:15:36.507Z,8.34
2023-04-11T03:18:07.983Z,8.33
2023-04-11T03:20:37.746Z,8.39
2023-04-11T03:23:04.667Z,8.40
2023-04-11T03:25:31.479Z,8.36
2023-04-11T03:28:00.742Z,8.32
2023-04-11T03:30:27.800Z,8.38
2023-04-11T03:32:54.702Z,8.28
2023-04-11T03:35:21.498Z,8.23
2023-04-11T03:37:50.274Z,8.29
2023-04-11T03:40:18.866Z,8.28
2023-04-11T03:42:51.359Z,8.23
2023-04-11T03:45:22.789Z,8.23
2023-04-11T03:47:52.470Z,8.19
2023-04-11T03:50:23.042Z,8.15
2023-04-11T03:52:56.078Z,8.11
2023-04-11T03:55:23.024Z,8.11
2023-04-11T03:57:49.877Z,8.10
2023-04-11T04:00:20.122Z,8.10
2023-04-11T04:02:58.838Z,8.02
2023-04-11T04:05:26.163Z,8.05
2023-04-11T04:07:55.174Z,8.07
2023-04-11T04:10:31.501Z,7.98
2023-04-11T04:12:58.984Z,8.01
2023-04-11T04:15:34.061Z,8.02
2023-04-11T04:18:02.419Z,8.00
2023-04-11T04:20:42.034Z,7.98
2023-04-11T04:23:09.027Z,7.85
2023-04-11T04:26:02.508Z,7.88
2023-04-11T04:28:32.037Z,7.78
2023-04-11T04:31:02.331Z,7.78
2023-04-11T04:33:35.214Z,7.87
2023-04-11T04:36:05.985Z,7.79
2023-04-11T04:38:38.439Z,7.76
2023-04-11T04:41:15.188Z,7.69
2023-04-11T04:43:45.804Z,7.67
2023-04-11T04:46:26.701Z,7.58
2023-04-11T04:48:54.479Z,7.60
2023-04-11T04:51:21.689Z,7.62
2023-04-11T04:53:48.328Z,7.57
2023-04-11T04:56:15.812Z,7.47
2023-04-11T04:58:47.402Z,7.48
2023-04-11T05:01:17.227Z,7.58
2023-04-11T05:03:46.957Z,7.52
2023-04-11T05:06:21.750Z,7.57
2023-04-11T05:08:50.407Z,7.50
2023-04-11T05:11:17.376Z,7.51
2023-04-11T05:13:44.154Z,7.47
2023-04-11T05:16:11.198Z,7.49
2023-04-11T05:18:38.057Z,7.43
2023-04-11T05:21:05.497Z,7.48
2023-04-11T05:23:37.301Z,7.54
2023-04-11T05:26:06.302Z,7.55
2023-04-11T05:28:34.208Z,7.63
2023-04-11T05:31:02.740Z,7.65
2023-04-11T05:33:29.760Z,7.65
2023-04-11T05:35:57.878Z,7.71
2023-04-11T05:38:24.664Z,7.63
2023-04-11T05:40:51.490Z,7.65
2023-04-11T05:43:19.444Z,7.68
2023-04-11T05:45:49.009Z,7.72
2023-04-11T05:48:19.808Z,7.85
2023-04-11T05:50:47.697Z,8.02
2023-04-11T05:53:14.475Z,8.09
2023-04-11T05:55:41.423Z,8.09
2023-04-11T05:58:09.226Z,8.06
2023-04-11T06:00:38.344Z,8.00
2023-04-11T06:03:08.068Z,7.94
2023-04-11T06:05:35.710Z,8.00
2023-04-11T06:08:04.142Z,8.06
2023-04-11T06:10:31.407Z,8.11
2023-04-11T06:12:58.701Z,8.13
2023-04-11T06:15:27.034Z,8.22
2023-04-11T06:17:54.235Z,8.17
2023-04-11T06:20:22.746Z,8.14
2023-04-11T06:22:51.674Z,8.11
2023-04-11T06:25:20.041Z,8.13
2023-04-11T06:27:48.203Z,8.24
2023-04-11T06:30:15.319Z,8.30
2023-04-11T06:32:42.110Z,8.28
2023-04-11T06:35:09.739Z,8.29
2023-04-11T06:37:36.413Z,8.33
2023-04-11T06:40:05.534Z,8.33
2023-04-11T06:42:32.238Z,8.30
2023-04-11T06:44:58.915Z,8.27
2023-04-11T06:47:25.760Z,8.47
2023-04-11T06:49:52.465Z,8.91
2023-04-11T06:52:19.209Z,9.06
2023-04-11T06:54:48.040Z,8.88
2023-04-11T06:57:14.823Z,8.73
2023-04-11T06:59:41.554Z,8.81
2023-04-11T07:02:08.349Z,8.63
2023-04-11T07:04:35.278Z,8.60
2023-04-11T07:07:02.159Z,8.58
2023-04-11T07:09:28.996Z,9.14
2023-04-11T07:11:56.418Z,9.38
2023-04-11T07:14:23.222Z,9.75
2023-04-11T07:16:50.005Z,10.77
2023-04-11T07:19:16.755Z,10.14
2023-04-11T07:21:43.830Z,9.69
2023-04-11T07:24:11.334Z,9.49
2023-04-11T07:26:39.047Z,9.31
2023-04-11T07:29:08.114Z,9.32
2023-04-11T07:31:36.814Z,9.07
2023-04-11T07:34:03.566Z,9.14
2023-04-11T07:36:31.749Z,9.20
2023-04-11T07:39:00.225Z,9.27
2023-04-11T07:41:26.891Z,9.31
2023-04-11T07:43:53.691Z,9.66
2023-04-11T07:46:20.803Z,9.54
2023-04-11T07:48:47.650Z,9.49
2023-04-11T07:51:14.385Z,9.39
2023-04-11T07:53:41.050Z,9.47
2023-04-11T07:56:08.218Z,9.58
2023-04-11T07:58:34.982Z,9.67
2023-04-11T08:01:02.850Z,9.41
2023-04-11T08:03:30.224Z,9.71
2023-04-11T08:05:57.208Z,9.45
2023-04-11T08:08:24.035Z,9.40
2023-04-11T08:10:52.168Z,9.56
2023-04-11T08:13:22.057Z,9.52
2023-04-11T08:15:48.788Z,9.55
2023-04-11T08:18:16.629Z,9.70
2023-04-11T08:20:43.410Z,9.95
2023-04-11T08:23:10.699Z,9.94
2023-04-11T08:25:37.776Z,10.53
2023-04-11T08:28:05.300Z,10.74
2023-04-11T08:30:32.539Z,10.56
2023-04-11T08:32:59.409Z,10.42
2023-04-11T08:35:26.612Z,10.31
2023-04-11T08:37:53.661Z,11.00
2023-04-11T08:40:20.383Z,11.00
2023-04-11T08:42:47.352Z,11.42
2023-04-11T08:45:14.024Z,11.88
2023-04-11T08:47:43.207Z,12.11
2023-04-11T08:50:11.910Z,12.67
2023-04-11T08:52:39.758Z,13.03
2023-04-11T08:55:06.818Z,13.54
2023-04-11T08:57:35.083Z,13.83
2023-04-11T09:00:15.370Z,14.11
2023-04-11T09:03:03.375Z,14.41
2023-04-11T09:05:32.357Z,13.97
2023-04-11T09:08:04.741Z,14.41
2023-04-11T09:10:31.609Z,14.01
2023-04-11T09:12:59.287Z,14.05
2023-04-11T09:15:28.225Z,15.54
2023-04-11T09:17:58.905Z,15.33
2023-04-11T09:20:29.592Z,14.67
2023-04-11T09:22:59.083Z,15.49
2023-04-11T09:25:26.027Z,15.68
2023-04-11T09:28:10.601Z,15.61
2023-04-11T09:30:37.435Z,15.88
2023-04-11T09:33:23.285Z,16.39
2023-04-11T09:35:52.670Z,15.53
2023-04-11T09:38:34.485Z,16.52
2023-04-11T09:41:03.242Z,16.47
2023-04-11T09:43:59.598Z,16.20
2023-04-11T09:46:26.379Z,15.25
2023-04-11T09:48:56.322Z,16.51
2023-04-11T09:51:35.847Z,15.45
2023-04-11T09:54:04.344Z,15.47
2023-04-11T09:56:31.901Z,15.00
2023-04-11T09:59:00.298Z,16.05
2023-04-11T10:01:27.615Z,16.61
2023-04-11T10:03:56.398Z,16.66
2023-04-11T10:06:42.160Z,17.23
2023-04-11T10:09:11.479Z,15.75
2023-04-11T10:11:43.454Z,14.66
2023-04-11T10:14:38.787Z,14.19
2023-04-11T10:17:22.069Z,13.27
2023-04-11T10:19:56.680Z,12.35
2023-04-11T10:22:43.524Z,13.98
2023-04-11T10:25:21.124Z,13.99
2023-04-11T10:28:02.190Z,14.49
2023-04-11T10:30:41.239Z,14.71
2023-04-11T10:33:12.300Z,15.24
2023-04-11T10:35:58.802Z,15.48
2023-04-11T10:38:57.882Z,14.89
2023-04-11T10:41:33.459Z,14.46
2023-04-11T10:44:18.626Z,15.57
2023-04-11T10:46:54.251Z,15.90
2023-04-11T10:49:34.888Z,14.51
2023-04-11T10:52:23.887Z,15.28
2023-04-11T10:54:52.975Z,15.50
2023-04-11T10:57:21.659Z,15.96
2023-04-11T10:59:51.599Z,15.83
2023-04-11T11:02:22.324Z,16.05
2023-04-11T11:04:49.481Z,15.64
2023-04-11T11:07:17.555Z,15.99
2023-04-11T11:09:51.563Z,16.99
2023-04-11T11:12:18.511Z,17.16
2023-04-11T11:14:46.896Z,16.19
2023-04-11T11:17:16.194Z,16.84
2023-04-11T11:19:47.248Z,16.79
2023-04-11T11:22:26.616Z,16.10
2023-04-11T11:24:53.390Z,16.35
2023-04-11T11:27:24.582Z,16.10
2023-04-11T11:29:55.157Z,16.69
2023-04-11T11:32:28.958Z,16.52
2023-04-11T11:34:57.917Z,16.70
2023-04-11T11:37:25.183Z,16.83
2023-04-11T11:39:52.317Z,17.04
2023-04-11T11:42:19.619Z,16.87
2023-04-11T11:44:46.579Z,17.01
2023-04-11T11:47:17.416Z,16.83
2023-04-11T11:49:52.567Z,16.00
2023-04-11T11:52:42.174Z,17.26
2023-04-11T11:55:18.076Z,16.62
2023-04-11T11:57:48.864Z,16.25
2023-04-11T12:00:24.698Z,15.62
2023-04-11T12:02:57.060Z,17.16
2023-04-11T12:05:30.808Z,16.91
2023-04-11T12:08:00.258Z,17.37
2023-04-11T12:10:47.727Z,16.89
2023-04-11T12:13:23.837Z,15.85
2023-04-11T12:15:53.270Z,15.01
2023-04-11T12:18:21.600Z,15.30
2023-04-11T12:20:48.638Z,15.50
2023-04-11T12:23:15.369Z,15.37
2023-04-11T12:25:42.382Z,14.72
2023-04-11T12:28:10.352Z,15.26
2023-04-11T12:30:37.942Z,15.26
2023-04-11T12:33:05.324Z,14.90
2023-04-11T12:35:32.491Z,14.65
2023-04-11T12:37:59.307Z,14.41
2023-04-11T12:40:29.547Z,14.17
2023-04-11T12:42:57.533Z,13.85
2023-04-11T12:45:25.364Z,13.99
2023-04-11T12:47:52.400Z,13.86
2023-04-11T12:50:19.318Z,13.73
2023-04-11T12:52:46.056Z,13.82
2023-04-11T12:55:13.550Z,13.64
2023-04-11T12:57:41.261Z,14.76
2023-04-11T13:00:09.157Z,15.18
2023-04-11T13:02:43.260Z,15.75
2023-04-11T13:05:12.007Z,16.08
2023-04-11T13:07:39.329Z,15.66
2023-04-11T13:10:09.394Z,16.23
2023-04-11T13:12:41.639Z,16.40
2023-04-11T13:15:09.930Z,15.85
2023-04-11T13:17:37.023Z,15.38
2023-04-11T13:20:10.923Z,15.37
2023-04-11T13:22:38.914Z,15.26
2023-04-11T13:25:07.115Z,15.11
2023-04-11T13:27:34.419Z,14.63
2023-04-11T13:30:01.344Z,14.96
2023-04-11T13:32:28.130Z,14.62
2023-04-11T13:34:54.874Z,14.67
2023-04-11T13:37:22.235Z,14.81
2023-04-11T13:39:48.906Z,14.83
2023-04-11T13:42:15.834Z,14.39
2023-04-11T13:44:42.515Z,14.63
2023-04-11T13:47:09.149Z,14.47
2023-04-11T13:49:36.096Z,15.34
2023-04-11T13:52:02.844Z,15.78
2023-04-11T13:54:30.383Z,16.03
2023-04-11T13:56:57.952Z,16.19
2023-04-11T13:59:24.647Z,16.37
2023-04-11T14:01:51.404Z,16.65
2023-04-11T14:04:18.280Z,16.36
2023-04-11T14:06:45.198Z,16.85
2023-04-11T14:09:11.895Z,16.90
2023-04-11T14:11:38.553Z,16.04
2023-04-11T14:14:05.239Z,15.78
2023-04-11T14:16:32.143Z,15.84
2023-04-11T14:18:58.834Z,15.66
2023-04-11T14:21:28.792Z,15.40
2023-04-11T14:23:56.111Z,15.35
2023-04-11T14:26:23.157Z,15.46
2023-04-11T14:28:50.369Z,15.64
2023-04-11T14:31:17.251Z,15.70
2023-04-11T14:33:44.028Z,15.91
2023-04-11T14:36:10.707Z,16.29
2023-04-11T14:38:37.564Z,16.64
2023-04-11T14:41:04.605Z,16.48
2023-04-11T14:43:31.631Z,16.81
2023-04-11T14:45:58.384Z,16.13
2023-04-11T14:48:29.020Z,16.21
2023-04-11T14:50:55.814Z,16.17
2023-04-11T14:53:23.033Z,16.09
2023-04-11T14:55:49.802Z,16.38
2023-04-11T14:58:17.222Z,16.76
2023-04-11T15:00:44.868Z,16.30
2023-04-11T15:03:12.575Z,15.96
2023-04-11T15:05:39.583Z,16.35
2023-04-11T15:08:06.408Z,16.43
2023-04-11T15:10:33.180Z,16.55
2023-04-11T15:12:59.883Z,16.28
2023-04-11T15:15:26.608Z,16.49
2023-04-11T15:18:28.018Z,16.16
2023-04-11T15:21:00.165Z,16.01
2023-04-11T15:23:27.094Z,16.24
2023-04-11T15:26:01.157Z,15.74
2023-04-11T15:28:35.092Z,16.17
2023-04-11T15:31:02.783Z,15.81
2023-04-11T15:33:31.985Z,16.08
2023-04-11T15:36:00.545Z,16.48
2023-04-11T15:38:29.178Z,15.91
2023-04-11T15:40:58.742Z,16.22
2023-04-11T15:43:26.032Z,15.36
2023-04-11T15:45:54.019Z,15.21
2023-04-11T15:48:20.892Z,15.33
2023-04-11T15:50:47.619Z,15.16
2023-04-11T15:53:14.511Z,14.28
2023-04-11T15:55:42.913Z,14.46
2023-04-11T15:58:10.508Z,13.95
2023-04-11T16:00:38.596Z,14.26
2023-04-11T16:03:10.780Z,14.12
2023-04-11T16:05:41.007Z,13.87
2023-04-11T16:08:08.043Z,14.06
2023-04-11T16:10:35.183Z,13.67
2023-04-11T16:13:02.733Z,13.41
2023-04-11T16:15:29.546Z,13.54
2023-04-11T16:17:56.457Z,13.58
2023-04-11T16:20:23.299Z,13.57
2023-04-11T16:22:49.977Z,13.55
2023-04-11T16:25:19.579Z,13.47
2023-04-11T16:27:47.491Z,13.75
2023-04-11T16:30:14.378Z,13.73
2023-04-11T16:32:41.271Z,13.48
2023-04-11T16:35:08.546Z,13.37
2023-04-11T16:37:35.738Z,13.14
2023-04-11T16:40:02.524Z,13.09
2023-04-11T16:42:29.313Z,13.10
2023-04-11T16:44:56.194Z,12.91
2023-04-11T16:47:26.297Z,12.84
2023-04-11T16:49:53.724Z,12.82
2023-04-11T16:52:21.462Z,12.80
2023-04-11T16:54:48.397Z,12.70
2023-04-11T16:57:15.134Z,12.64
2023-04-11T16:59:42.160Z,12.96
2023-04-11T17:02:09.029Z,12.82
2023-04-11T17:04:36.123Z,12.94
2023-04-11T17:07:02.934Z,12.79
2023-04-11T17:09:29.883Z,12.56
2023-04-11T17:11:57.863Z,12.45
2023-04-11T17:14:24.795Z,12.20
2023-04-11T17:16:51.767Z,12.34
2023-04-11T17:19:18.520Z,12.01
2023-04-11T17:21:45.424Z,12.06
2023-04-11T17:24:12.200Z,11.89
2023-04-11T17:26:38.859Z,11.94
2023-04-11T17:29:06.666Z,11.79
2023-04-11T17:31:34.203Z,11.71
2023-04-11T17:34:00.944Z,11.54
2023-04-11T17:36:28.563Z,11.69
2023-04-11T17:38:55.349Z,11.64
2023-04-11T17:41:23.019Z,11.80
2023-04-11T17:43:49.832Z,11.69
2023-04-11T17:46:16.618Z,11.67
2023-04-11T17:48:43.412Z,11.62
2023-04-11T17:51:10.124Z,11.53
2023-04-11T17:53:37.184Z,11.64
2023-04-11T17:56:06.269Z,11.47
2023-04-11T17:58:33.662Z,11.19
2023-04-11T18:01:00.395Z,11.10
2023-04-11T18:03:27.279Z,11.05
2023-04-11T18:05:54.737Z,10.86
2023-04-11T18:08:29.848Z,10.78
2023-04-11T18:11:04.481Z,10.66
2023-04-11T18:13:31.727Z,10.61
2023-04-11T18:15:58.726Z,10.45
2023-04-11T18:18:26.100Z,10.39
2023-04-11T18:20:52.792Z,10.25
2023-04-11T18:23:19.425Z,10.05
2023-04-11T18:25:46.274Z,10.04
2023-04-11T18:28:12.954Z,10.05
2023-04-11T18:30:39.659Z,9.95
2023-04-11T18:33:06.511Z,9.89
2023-04-11T18:35:33.217Z,9.79
2023-04-11T18:38:00.365Z,9.81
2023-04-11T18:40:27.853Z,9.80
2023-04-11T18:42:56.299Z,9.82
2023-04-11T18:45:23.772Z,9.81
2023-04-11T18:47:51.197Z,9.75
2023-04-11T18:50:19.165Z,9.65
2023-04-11T18:52:49.802Z,9.58
2023-04-11T18:55:21.209Z,9.51
2023-04-11T18:57:49.341Z,9.64
2023-04-11T19:00:19.656Z,9.52
2023-04-11T19:02:47.860Z,9.53
2023-04-11T19:05:17.327Z,9.50
2023-04-11T19:07:46.316Z,9.45
2023-04-11T19:10:14.894Z,9.47
2023-04-11T19:12:42.945Z,9.33
2023-04-11T19:15:11.794Z,9.29
2023-04-11T19:17:40.116Z,9.25
2023-04-11T19:20:13.707Z,9.27
2023-04-11T19:22:42.502Z,9.29
2023-04-11T19:25:11.970Z,9.20
2023-04-11T19:27:42.360Z,9.15
2023-04-11T19:30:12.248Z,9.00
2023-04-11T19:32:44.053Z,8.98
2023-04-11T19:35:13.054Z,8.97
2023-04-11T19:37:41.802Z,8.84
2023-04-11T19:40:14.405Z,8.83
2023-04-11T19:42:43.711Z,8.88
2023-04-11T19:45:12.629Z,8.91
2023-04-11T19:47:44.067Z,8.92
2023-04-11T19:50:13.855Z,8.89
2023-04-11T19:52:43.350Z,8.93
2023-04-11T19:55:12.601Z,8.96
2023-04-11T19:57:41.796Z,9.01
2023-04-11T20:00:17.897Z,8.99
2023-04-11T20:02:48.803Z,8.83
2023-04-11T20:05:19.442Z,8.83
2023-04-11T20:07:48.903Z,8.78
2023-04-11T20:10:17.832Z,8.81
2023-04-11T20:12:50.114Z,8.78
2023-04-11T20:15:18.179Z,8.84
2023-04-11T20:17:47.753Z,8.77
2023-04-11T20:20:17.847Z,8.72
2023-04-11T20:22:46.062Z,8.70
2023-04-11T20:25:14.013Z,8.72
2023-04-11T20:27:43.387Z,8.63
2023-04-11T20:30:11.614Z,8.69
2023-04-11T20:32:40.453Z,8.74
2023-04-11T20:35:10.541Z,8.62
2023-04-11T20:37:40.588Z,8.66
2023-04-11T20:40:10.970Z,8.58
2023-04-11T20:42:43.076Z,8.62
2023-04-11T20:45:18.630Z,8.54
2023-04-11T20:47:48.041Z,8.47
2023-04-11T20:50:17.168Z,8.54
2023-04-11T20:52:46.654Z,8.56
2023-04-11T20:55:16.370Z,8.54
2023-04-11T20:57:43.177Z,8.52
2023-04-11T21:00:17.426Z,8.49
2023-04-11T21:02:46.213Z,8.46
2023-04-11T21:05:14.310Z,8.49
2023-04-11T21:07:42.204Z,8.48
2023-04-11T21:10:09.965Z,8.55
2023-04-11T21:12:37.348Z,8.45
2023-04-11T21:15:04.890Z,8.50
2023-04-11T21:17:34.221Z,8.48
2023-04-11T21:20:01.894Z,8.47
2023-04-11T21:22:28.651Z,8.46
2023-04-11T21:24:55.349Z,8.50
2023-04-11T21:27:22.051Z,8.53
2023-04-11T21:29:48.703Z,8.52
2023-04-11T21:32:15.654Z,8.52
2023-04-11T21:34:42.545Z,8.46
2023-04-11T21:37:09.249Z,8.53
2023-04-11T21:39:36.167Z,8.41
2023-04-11T21:42:02.934Z,8.38
2023-04-11T21:44:29.860Z,8.37
2023-04-11T21:46:56.584Z,8.31
2023-04-11T21:49:24.249Z,8.40
2023-04-11T21:51:51.083Z,8.40
2023-04-11T21:54:17.728Z,8.35
2023-04-11T21:56:45.106Z,8.33
2023-04-11T21:59:11.990Z,8.32
2023-04-11T22:01:38.756Z,8.40
2023-04-11T22:04:05.845Z,8.40
2023-04-11T22:06:32.754Z,8.34
2023-04-11T22:09:01.517Z,8.34
2023-04-11T22:11:28.334Z,8.29
2023-04-11T22:13:55.539Z,8.27
2023-04-11T22:16:30.498Z,8.26
2023-04-11T22:19:00.917Z,8.32
2023-04-11T22:21:28.922Z,8.31
2023-04-11T22:23:57.667Z,8.35
2023-04-11T22:26:29.597Z,8.32
2023-04-11T22:29:01.385Z,8.28
2023-04-11T22:31:35.151Z,8.36
2023-04-11T22:34:05.017Z,8.33
2023-04-11T22:36:36.157Z,8.36
2023-04-11T22:39:07.082Z,8.38
2023-04-11T22:41:35.593Z,8.27
2023-04-11T22:44:02.847Z,8.28
2023-04-11T22:46:31.179Z,8.35
2023-04-11T22:49:00.768Z,8.34
2023-04-11T22:51:30.437Z,8.40
2023-04-11T22:53:57.811Z,8.33
2023-04-11T22:56:24.702Z,8.37
2023-04-11T22:58:51.979Z,8.36
2023-04-11T23:01:18.896Z,8.36
2023-04-11T23:03:46.048Z,8.35
2023-04-11T23:06:12.919Z,8.26
2023-04-11T23:08:39.626Z,8.28
2023-04-11T23:11:07.437Z,8.23
2023-04-11T23:13:34.241Z,8.22
2023-04-11T23:16:01.117Z,8.38
2023-04-11T23:18:27.857Z,8.38
2023-04-11T23:20:54.773Z,8.41
2023-04-11T23:23:21.438Z,8.49
2023-04-11T23:25:48.159Z,8.47
2023-04-11T23:28:14.839Z,8.43
2023-04-11T23:30:41.793Z,8.45
2023-04-11T23:33:09.157Z,8.46
2023-04-11T23:35:36.303Z,8.35
2023-04-11T23:38:03.833Z,8.43
2023-04-11T23:40:30.957Z,8.39
2023-04-11T23:42:58.238Z,8.40
2023-04-11T23:45:25.044Z,8.43
2023-04-11T23:47:52.390Z,8.42
2023-04-11T23:50:19.828Z,8.43
2023-04-11T23:52:47.093Z,8.40
2023-04-11T23:55:14.414Z,8.40
2023-04-11T23:57:41.208Z,8.40
